Time;durP1;ratioP1;P1;durP2;ratioP2;P2;SDS_P1;SDS_P2;PMS_P1;PMS_P2;Temp;Humidity;BMP_temperature;BMP_pressure;BME280_temperature;BME280_humidity;BME280_pressure;Samples;Min_cycle;Max_cycle;Signal;HPM_P1;HPM_P2
2023/03/26 00:00:42;;;;;;;1.63;1.03;;;;;;;6.69;100.00;97689.50;5053597;28;20212;-77
2023/03/26 00:03:09;;;;;;;3.10;2.07;;;;;;;6.73;100.00;97691.00;5053823;28;20215;-77
2023/03/26 00:05:35;;;;;;;3.40;1.47;;;;;;;6.65;100.00;97688.00;5053998;28;20237;-77
2023/03/26 00:08:02;;;;;;;4.03;1.23;;;;;;;6.57;100.00;97685.00;5054611;28;20228;-77
2023/03/26 00:10:29;;;;;;;3.23;1.73;;;;;;;6.50;100.00;97696.81;5053191;28;20211;-77
2023/03/26 00:12:55;;;;;;;2.97;1.37;;;;;;;6.47;100.00;97691.72;5053743;28;20213;-77
2023/03/26 00:15:22;;;;;;;3.30;1.80;;;;;;;6.40;100.00;97689.56;5054032;28;20234;-77
2023/03/26 00:17:50;;;;;;;2.97;1.63;;;;;;;6.38;100.00;97691.44;5055211;28;20210;-78
2023/03/26 00:20:16;;;;;;;2.30;1.10;;;;;;;6.36;100.00;97688.88;5052842;28;20228;-77
2023/03/26 00:22:44;;;;;;;2.53;1.40;;;;;;;6.40;100.00;97687.78;5052242;28;20555;-77
2023/03/26 00:25:10;;;;;;;3.30;1.33;;;;;;;6.44;100.00;97691.91;5052086;28;20324;-78
2023/03/26 00:27:37;;;;;;;3.80;1.30;;;;;;;6.47;100.00;97696.97;5052255;28;20221;-77
2023/03/26 00:30:04;;;;;;;5.73;1.40;;;;;;;6.49;100.00;97694.25;5051432;28;20211;-77
2023/03/26 00:32:31;;;;;;;5.60;1.60;;;;;;;6.54;100.00;97690.41;5052211;28;20553;-77
2023/03/26 00:34:59;;;;;;;3.00;1.50;;;;;;;6.60;100.00;97694.47;5051853;28;20235;-77
2023/03/26 00:37:26;;;;;;;1.30;1.20;;;;;;;6.55;100.00;97688.66;5052550;28;20300;-77
2023/03/26 00:39:52;;;;;;;2.43;1.40;;;;;;;6.60;100.00;97692.66;5050620;28;20714;-77
2023/03/26 00:42:19;;;;;;;4.13;1.50;;;;;;;6.57;100.00;97692.00;5049402;28;20226;-78
2023/03/26 00:44:46;;;;;;;2.90;1.50;;;;;;;6.56;100.00;97680.69;5049982;28;20230;-78
2023/03/26 00:47:13;;;;;;;4.30;1.50;;;;;;;6.54;100.00;97681.72;5051888;28;20214;-77
2023/03/26 00:49:39;;;;;;;3.43;1.50;;;;;;;6.52;100.00;97678.31;5051095;28;20211;-77
2023/03/26 00:52:07;;;;;;;3.07;1.20;;;;;;;6.44;100.00;97667.44;5051411;28;20214;-77
2023/03/26 00:54:34;;;;;;;3.47;1.30;;;;;;;6.42;100.00;97669.31;5051561;28;20215;-77
2023/03/26 00:57:00;;;;;;;2.87;1.07;;;;;;;6.40;100.00;97658.91;5050613;28;20225;-77
2023/03/26 00:59:29;;;;;;;2.73;1.43;;;;;;;6.38;100.00;97655.53;5049154;28;20241;-77
2023/03/26 01:01:57;;;;;;;4.97;1.53;;;;;;;6.40;100.00;97664.16;5048293;28;20216;-77
2023/03/26 01:04:29;;;;;;;4.23;1.37;;;;;;;6.39;100.00;97656.38;5050474;28;20297;-77
2023/03/26 01:06:57;;;;;;;4.07;1.67;;;;;;;6.38;100.00;97645.03;5050962;28;20687;-77
2023/03/26 01:09:31;;;;;;;4.30;1.23;;;;;;;6.34;100.00;97646.16;5050341;28;20278;-77
2023/03/26 01:11:59;;;;;;;2.23;1.47;;;;;;;6.31;100.00;97643.72;5050747;28;20208;-77
2023/03/26 01:14:27;;;;;;;3.60;1.30;;;;;;;6.30;100.00;97628.91;5050456;28;20214;-77
2023/03/26 01:16:56;;;;;;;3.90;1.60;;;;;;;6.33;100.00;97633.13;5050841;28;20222;-77
2023/03/26 01:19:29;;;;;;;3.63;1.37;;;;;;;6.30;100.00;97626.28;5050371;28;20239;-77
2023/03/26 01:21:56;;;;;;;4.20;1.53;;;;;;;6.34;100.00;97627.78;5051337;28;20214;-77
2023/03/26 01:24:24;;;;;;;2.87;1.53;;;;;;;6.43;100.00;97619.38;5054473;28;20218;-77
2023/03/26 01:27:04;;;;;;;6.27;1.63;;;;;;;6.45;100.00;97604.38;5054181;28;20211;-77
2023/03/26 01:29:34;;;;;;;2.83;1.20;;;;;;;6.48;100.00;97606.78;5054276;28;20210;-77
2023/03/26 01:32:13;;;;;;;3.40;1.57;;;;;;;6.57;100.00;97601.00;5054613;28;20216;-77
2023/03/26 01:34:51;;;;;;;4.47;1.50;;;;;;;6.62;100.00;97598.94;5054182;28;20241;-77
2023/03/26 01:37:23;;;;;;;2.67;1.20;;;;;;;6.63;100.00;97595.34;5054189;28;20211;-77
2023/03/26 01:39:56;;;;;;;4.80;1.33;;;;;;;6.60;100.00;97592.09;5053769;28;20233;-77
2023/03/26 01:42:30;;;;;;;3.27;1.30;;;;;;;6.61;100.00;97584.13;5054340;28;20211;-77
2023/03/26 01:45:03;;;;;;;3.53;1.83;;;;;;;6.62;100.00;97585.81;5054100;28;20678;-77
2023/03/26 01:47:31;;;;;;;1.90;1.13;;;;;;;6.64;100.00;97581.28;5054083;28;20209;-77
2023/03/26 01:49:57;;;;;;;1.80;1.10;;;;;;;6.63;100.00;97576.13;5053773;28;20211;-77
2023/03/26 01:52:25;;;;;;;2.77;1.27;;;;;;;6.63;100.00;97570.88;5054161;28;20218;-77
2023/03/26 01:54:54;;;;;;;2.37;1.10;;;;;;;6.66;100.00;97563.66;5053796;28;20738;-77
2023/03/26 01:57:29;;;;;;;4.13;1.40;;;;;;;6.61;100.00;97555.25;5053980;28;20210;-77
2023/03/26 02:00:11;;;;;;;4.70;1.73;;;;;;;6.65;100.00;97554.09;5053426;28;20270;-77
2023/03/26 02:02:45;;;;;;;3.30;1.30;;;;;;;6.70;100.00;97551.16;5053982;28;20628;-77
2023/03/26 02:05:20;;;;;;;2.90;1.30;;;;;;;6.66;100.00;97549.69;5053669;28;20235;-77
2023/03/26 02:07:52;;;;;;;3.03;1.30;;;;;;;6.66;100.00;97547.06;5053794;28;20274;-77
2023/03/26 02:10:25;;;;;;;4.40;1.67;;;;;;;6.72;100.00;97544.88;5053643;28;20211;-77
2023/03/26 02:12:53;;;;;;;3.60;1.40;;;;;;;6.81;100.00;97539.06;5053490;28;20209;-77
2023/03/26 02:15:19;;;;;;;3.30;1.50;;;;;;;6.82;100.00;97529.38;5053386;28;20747;-77
2023/03/26 02:17:48;;;;;;;2.93;1.10;;;;;;;6.79;100.00;97524.34;5053490;28;20204;-77
2023/03/26 02:20:17;;;;;;;3.20;1.20;;;;;;;6.78;100.00;97514.78;5052920;28;20225;-77
2023/03/26 02:22:46;;;;;;;2.80;1.23;;;;;;;6.75;100.00;97507.09;5053423;28;20211;-77
2023/03/26 02:25:14;;;;;;;3.10;1.50;;;;;;;6.72;100.00;97502.03;5053121;28;20227;-76
2023/03/26 02:27:43;;;;;;;5.73;2.63;;;;;;;6.77;100.00;97508.66;5053467;28;20210;-77
2023/03/26 02:30:14;;;;;;;2.90;1.30;;;;;;;6.85;100.00;97509.00;5053327;28;20201;-77
2023/03/26 02:32:42;;;;;;;3.20;1.20;;;;;;;6.93;100.00;97495.41;5053063;28;20213;-77
2023/03/26 02:35:10;;;;;;;4.13;1.40;;;;;;;6.97;100.00;97487.22;5051846;28;20329;-77
2023/03/26 02:37:37;;;;;;;3.13;1.33;;;;;;;7.04;100.00;97485.03;5053016;28;20636;-77
2023/03/26 02:40:09;;;;;;;5.47;1.37;;;;;;;7.11;100.00;97494.19;5052563;28;20231;-77
2023/03/26 02:42:35;;;;;;;4.67;1.53;;;;;;;7.15;100.00;97491.25;5053268;28;20237;-77
2023/03/26 02:45:04;;;;;;;4.43;1.60;;;;;;;7.22;100.00;97487.31;5052761;28;20233;-77
2023/03/26 02:47:32;;;;;;;4.43;1.07;;;;;;;7.25;100.00;97484.47;5052767;28;20569;-77
2023/03/26 02:49:58;;;;;;;3.23;1.53;;;;;;;7.29;100.00;97483.34;5052284;28;20735;-77
2023/03/26 02:52:25;;;;;;;3.53;1.20;;;;;;;7.27;100.00;97485.19;5052441;28;20228;-77
2023/03/26 02:54:52;;;;;;;4.17;1.50;;;;;;;7.32;100.00;97481.34;5052796;28;20230;-77
2023/03/26 02:57:18;;;;;;;3.50;1.27;;;;;;;7.35;100.00;97475.88;5052677;28;20208;-77
2023/03/26 02:59:45;;;;;;;2.53;1.03;;;;;;;7.29;100.00;97471.00;5052293;28;20227;-77
2023/03/26 03:02:13;;;;;;;3.03;1.13;;;;;;;7.28;100.00;97466.72;5052855;28;20627;-77
2023/03/26 03:04:40;;;;;;;4.73;1.30;;;;;;;7.23;100.00;97462.72;5052373;28;20232;-77
2023/03/26 03:07:06;;;;;;;3.90;1.80;;;;;;;7.20;100.00;97452.38;5052445;28;20212;-77
2023/03/26 03:09:33;;;;;;;5.23;1.13;;;;;;;7.22;100.00;97458.41;5052131;28;20218;-77
2023/03/26 03:12:00;;;;;;;3.60;1.10;;;;;;;7.23;100.00;97446.94;5052308;28;20710;-77
2023/03/26 03:14:26;;;;;;;3.07;1.40;;;;;;;7.24;100.00;97443.38;5052424;28;20618;-76
2023/03/26 03:16:53;;;;;;;4.30;1.50;;;;;;;7.26;100.00;97438.84;5052262;28;20220;-76
2023/03/26 03:19:25;;;;;;;3.20;1.07;;;;;;;7.29;100.00;97439.47;5051458;28;20215;-76
2023/03/26 03:21:52;;;;;;;4.70;1.50;;;;;;;7.30;100.00;97427.19;5051908;28;20217;-76
2023/03/26 03:24:18;;;;;;;3.30;1.20;;;;;;;7.29;100.00;97428.97;5051966;28;20210;-76
2023/03/26 03:26:46;;;;;;;2.57;1.10;;;;;;;7.38;100.00;97430.13;5051964;28;20205;-77
2023/03/26 03:29:12;;;;;;;3.33;1.30;;;;;;;7.37;100.00;97420.56;5051788;28;20550;-76
2023/03/26 03:31:40;;;;;;;3.23;1.30;;;;;;;7.41;100.00;97414.16;5051886;28;20200;-77
2023/03/26 03:34:06;;;;;;;5.70;2.00;;;;;;;7.42;100.00;97415.84;5051806;28;20205;-77
2023/03/26 03:36:37;;;;;;;6.77;1.47;;;;;;;7.46;100.00;97412.91;5051788;28;20239;-76
2023/03/26 03:39:04;;;;;;;5.40;1.40;;;;;;;7.50;100.00;97398.59;5051847;28;20214;-77
2023/03/26 03:41:30;;;;;;;4.23;1.60;;;;;;;7.50;100.00;97397.75;5051418;28;20607;-76
2023/03/26 03:43:58;;;;;;;3.97;1.53;;;;;;;7.53;100.00;97389.66;5051593;28;20207;-77
2023/03/26 03:46:25;;;;;;;5.50;1.50;;;;;;;7.54;100.00;97394.81;5051191;28;20232;-77
2023/03/26 03:48:51;;;;;;;3.63;1.20;;;;;;;7.52;100.00;97385.34;5051480;28;20702;-77
2023/03/26 03:51:18;;;;;;;2.57;1.30;;;;;;;7.47;100.00;97387.47;5051372;28;20674;-77
2023/03/26 03:53:46;;;;;;;2.67;1.20;;;;;;;7.46;100.00;97380.50;5051649;28;20298;-77
2023/03/26 03:56:13;;;;;;;2.93;1.13;;;;;;;7.46;100.00;97388.38;5051456;28;20234;-77
2023/03/26 03:58:41;;;;;;;1.80;1.10;;;;;;;7.45;100.00;97381.44;5051349;28;20218;-77
2023/03/26 04:01:07;;;;;;;1.47;1.10;;;;;;;7.44;100.00;97385.88;5051167;28;20322;-77
2023/03/26 04:03:37;;;;;;;3.70;1.50;;;;;;;7.44;100.00;97377.16;5051186;28;20215;-77
2023/03/26 04:06:05;;;;;;;2.80;1.10;;;;;;;7.46;100.00;97380.50;5051123;28;20724;-77
2023/03/26 04:08:32;;;;;;;4.37;1.50;;;;;;;7.52;100.00;97380.06;5051390;28;20204;-77
2023/03/26 04:11:00;;;;;;;3.93;1.50;;;;;;;7.52;100.00;97367.78;5050890;28;20219;-77
2023/03/26 04:13:27;;;;;;;3.13;1.20;;;;;;;7.52;100.00;97367.78;5051154;28;20210;-77
2023/03/26 04:15:53;;;;;;;7.13;1.53;;;;;;;7.54;100.00;97375.56;5051197;28;20230;-77
2023/03/26 04:18:21;;;;;;;3.90;1.03;;;;;;;7.58;100.00;97359.47;5051458;28;20215;-77
2023/03/26 04:20:48;;;;;;;3.97;1.33;;;;;;;7.55;100.00;97353.59;5050848;28;20713;-77
2023/03/26 04:23:16;;;;;;;3.17;1.23;;;;;;;7.53;100.00;97350.25;5051200;28;20215;-77
2023/03/26 04:25:47;;;;;;;4.40;1.40;;;;;;;7.50;100.00;97346.03;5050957;28;20811;-77
2023/03/26 04:28:25;;;;;;;4.73;1.30;;;;;;;7.44;100.00;97335.09;5051126;28;20308;-77
2023/03/26 04:30:53;;;;;;;4.37;1.93;;;;;;;7.41;100.00;97330.06;5050842;28;20217;-77
2023/03/26 04:33:20;;;;;;;2.60;1.20;;;;;;;7.38;100.00;97334.69;5050905;28;20231;-77
2023/03/26 04:35:47;;;;;;;3.43;1.30;;;;;;;7.33;100.00;97332.34;5050993;28;20247;-77
2023/03/26 04:38:15;;;;;;;4.03;1.33;;;;;;;7.32;100.00;97326.28;5051070;28;20210;-77
2023/03/26 04:40:46;;;;;;;3.70;1.53;;;;;;;7.31;100.00;97326.38;5050533;28;20790;-77
2023/03/26 04:43:16;;;;;;;4.23;1.30;;;;;;;7.32;100.00;97320.16;5051047;28;20215;-77
2023/03/26 04:45:44;;;;;;;3.57;1.33;;;;;;;7.31;100.00;97313.22;5051215;28;20237;-77
2023/03/26 04:48:13;;;;;;;2.17;1.10;;;;;;;7.32;100.00;97299.13;5051171;28;20246;-77
2023/03/26 04:50:41;;;;;;;4.27;1.47;;;;;;;7.30;100.00;97290.53;5050719;28;20215;-77
2023/03/26 04:53:12;;;;;;;2.80;1.33;;;;;;;7.28;100.00;97291.56;5050863;28;20234;-77
2023/03/26 04:55:43;;;;;;;3.00;1.20;;;;;;;7.27;100.00;97274.94;5051050;28;20262;-77
2023/03/26 04:58:12;;;;;;;3.87;1.50;;;;;;;7.26;100.00;97267.19;5053659;28;20565;-77
2023/03/26 05:00:41;;;;;;;3.77;1.50;;;;;;;7.26;100.00;97262.75;5054732;28;20656;-77
2023/03/26 05:03:10;;;;;;;3.30;1.40;;;;;;;7.28;100.00;97276.66;5054965;28;20217;-77
2023/03/26 05:05:37;;;;;;;4.60;1.43;;;;;;;7.32;100.00;97278.09;5054647;28;20712;-77
2023/03/26 05:08:04;;;;;;;4.33;1.50;;;;;;;7.34;100.00;97278.88;5054633;28;20213;-77
2023/03/26 05:10:31;;;;;;;2.93;1.50;;;;;;;7.39;100.00;97281.97;5054504;28;20206;-77
2023/03/26 05:12:57;;;;;;;4.57;1.50;;;;;;;7.42;100.00;97284.41;5054885;28;20209;-77
2023/03/26 05:15:24;;;;;;;5.03;1.40;;;;;;;7.49;100.00;97285.66;5054599;28;20237;-77
2023/03/26 05:17:54;;;;;;;5.93;1.93;;;;;;;7.56;100.00;97281.66;5054681;28;20329;-77
2023/03/26 05:20:23;;;;;;;4.73;1.63;;;;;;;7.58;100.00;97274.47;5054010;28;20340;-77
2023/03/26 05:22:50;;;;;;;3.53;1.33;;;;;;;7.61;100.00;97274.28;5054537;28;20219;-76
2023/03/26 05:25:17;;;;;;;3.73;1.40;;;;;;;7.58;100.00;97266.59;5054491;28;20252;-77
2023/03/26 05:27:43;;;;;;;3.63;1.40;;;;;;;7.57;100.00;97262.28;5054490;28;20213;-77
2023/03/26 05:30:14;;;;;;;3.03;1.57;;;;;;;7.60;100.00;97268.16;5053855;28;20215;-77
2023/03/26 05:32:40;;;;;;;4.73;1.70;;;;;;;7.70;100.00;97250.78;5054045;28;20214;-77
2023/03/26 05:35:09;;;;;;;3.40;1.40;;;;;;;7.73;100.00;97247.09;5070738;22;20585;-76
2023/03/26 05:37:37;;;;;;;4.53;1.40;;;;;;;7.74;100.00;97230.38;5074482;28;20240;-76
2023/03/26 05:40:10;;;;;;;7.37;2.07;;;;;;;7.78;100.00;97224.78;5073566;28;20658;-76
2023/03/26 05:42:36;;;;;;;3.37;1.40;;;;;;;7.77;100.00;97223.09;5074489;28;20214;-77
2023/03/26 05:45:03;;;;;;;5.53;1.90;;;;;;;7.81;100.00;97223.72;5074300;28;20227;-76
2023/03/26 05:47:30;;;;;;;3.07;1.30;;;;;;;7.74;100.00;97222.47;5074126;28;20217;-75
2023/03/26 05:49:57;;;;;;;3.17;1.47;;;;;;;7.72;100.00;97221.75;5074046;28;20210;-76
2023/03/26 05:52:25;;;;;;;3.50;1.47;;;;;;;7.71;100.00;97217.47;5074257;28;20252;-77
2023/03/26 05:54:51;;;;;;;3.07;1.37;;;;;;;7.74;100.00;97217.22;5074244;28;20214;-76
2023/03/26 05:57:18;;;;;;;4.60;1.73;;;;;;;7.78;100.00;97202.91;5074121;28;20213;-77
2023/03/26 05:59:45;;;;;;;5.27;2.07;;;;;;;7.80;100.00;97196.59;5073711;28;20263;-76
2023/03/26 06:02:11;;;;;;;3.47;1.20;;;;;;;7.88;100.00;97188.13;5074201;28;20234;-76
2023/03/26 06:04:39;;;;;;;6.73;1.90;;;;;;;7.87;100.00;97183.81;5073861;28;20206;-75
2023/03/26 06:07:08;;;;;;;5.17;1.50;;;;;;;7.92;100.00;97200.09;5074128;28;20213;-76
2023/03/26 06:09:37;;;;;;;4.90;1.50;;;;;;;7.98;100.00;97191.75;5073396;28;20214;-77
2023/03/26 06:12:04;;;;;;;6.63;1.70;;;;;;;8.06;100.00;97176.22;5073741;28;20252;-76
2023/03/26 06:14:33;;;;;;;4.10;1.40;;;;;;;7.81;100.00;97171.09;5073528;28;20685;-76
2023/03/26 06:16:59;;;;;;;5.97;1.77;;;;;;;7.67;100.00;97158.13;5076958;28;20234;-76
2023/03/26 06:19:26;;;;;;;6.67;1.53;;;;;;;7.58;100.00;97153.53;5076851;28;20214;-76
2023/03/26 06:21:52;;;;;;;4.97;1.60;;;;;;;7.57;100.00;97152.72;5077099;28;20709;-75
2023/03/26 06:24:19;;;;;;;4.30;1.67;;;;;;;7.51;100.00;97142.63;5077369;28;20205;-76
2023/03/26 06:26:47;;;;;;;6.80;1.87;;;;;;;7.52;100.00;97132.94;5073260;28;20228;-76
2023/03/26 06:29:14;;;;;;;4.63;1.30;;;;;;;7.55;100.00;97122.22;5073069;28;20205;-76
2023/03/26 06:31:41;;;;;;;4.33;1.30;;;;;;;7.58;100.00;97116.72;5073458;28;20210;-76
2023/03/26 06:34:08;;;;;;;3.63;1.60;;;;;;;7.60;100.00;97112.22;5073519;28;20213;-76
2023/03/26 06:36:35;;;;;;;5.40;1.87;;;;;;;7.64;100.00;97116.28;5073303;28;20238;-76
2023/03/26 06:39:02;;;;;;;3.37;1.67;;;;;;;7.69;100.00;97119.41;5073234;28;20321;-75
2023/03/26 06:41:29;;;;;;;3.93;1.40;;;;;;;7.69;100.00;97111.50;5072937;28;20559;-76
2023/03/26 06:43:57;;;;;;;3.83;1.57;;;;;;;7.81;100.00;97115.88;5073377;28;20206;-76
2023/03/26 06:46:24;;;;;;;3.53;1.20;;;;;;;7.88;100.00;97104.78;5073396;28;20557;-76
2023/03/26 06:48:50;;;;;;;2.73;1.50;;;;;;;7.94;100.00;97104.34;5073274;28;20250;-76
2023/03/26 06:51:17;;;;;;;4.40;1.37;;;;;;;7.94;100.00;97098.22;5073062;28;20585;-76
2023/03/26 06:53:44;;;;;;;5.63;1.70;;;;;;;8.00;100.00;97097.75;5073043;28;20317;-76
2023/03/26 06:56:10;;;;;;;4.30;2.00;;;;;;;8.05;100.00;97101.75;5072808;28;20257;-76
2023/03/26 06:58:37;;;;;;;3.93;1.50;;;;;;;8.11;100.00;97089.91;5072236;28;20213;-76
2023/03/26 07:01:05;;;;;;;2.60;1.70;;;;;;;8.18;100.00;97091.97;5071890;28;20234;-76
2023/03/26 07:03:32;;;;;;;3.07;1.80;;;;;;;8.16;100.00;97095.66;5072625;28;20211;-76
2023/03/26 07:05:58;;;;;;;5.33;1.50;;;;;;;8.14;100.00;97093.13;5072539;28;20238;-76
2023/03/26 07:08:25;;;;;;;6.63;1.30;;;;;;;8.14;100.00;97092.31;5072231;28;20673;-76
2023/03/26 07:10:51;;;;;;;4.97;1.33;;;;;;;8.12;100.00;97087.16;5072433;28;20210;-76
2023/03/26 07:13:18;;;;;;;2.77;1.60;;;;;;;8.12;100.00;97081.03;5072396;28;20210;-75
2023/03/26 07:15:44;;;;;;;5.83;1.47;;;;;;;8.09;100.00;97070.78;5072576;28;20611;-76
2023/03/26 07:18:12;;;;;;;4.50;1.57;;;;;;;8.09;100.00;97076.03;5072427;28;20214;-76
2023/03/26 07:20:39;;;;;;;5.30;1.50;;;;;;;8.11;100.00;97076.75;5071243;28;20207;-76
2023/03/26 07:23:06;;;;;;;3.90;1.40;;;;;;;8.14;100.00;97066.00;5072271;28;20211;-76
2023/03/26 07:25:33;;;;;;;4.20;1.30;;;;;;;8.15;100.00;97059.78;5072002;28;20227;-75
2023/03/26 07:28:07;;;;;;;3.83;1.60;;;;;;;8.16;100.00;97056.19;5071134;28;20221;-75
2023/03/26 07:30:46;;;;;;;4.43;1.40;;;;;;;8.19;100.00;97051.56;5069653;28;20213;-76
2023/03/26 07:33:21;;;;;;;3.73;1.23;;;;;;;8.20;100.00;97044.50;5072213;28;20217;-74
2023/03/26 07:35:53;;;;;;;3.73;1.40;;;;;;;8.14;100.00;97037.88;5070884;28;20238;-75
2023/03/26 07:38:39;;;;;;;3.37;1.40;;;;;;;8.09;100.00;97036.56;5069555;28;20275;-76
2023/03/26 07:41:14;;;;;;;3.43;1.73;;;;;;;8.05;100.00;97048.25;5071748;28;20302;-74
2023/03/26 07:43:58;;;;;;;3.90;1.50;;;;;;;8.03;100.00;97052.81;5071151;28;20214;-76
2023/03/26 07:46:34;;;;;;;2.97;1.77;;;;;;;7.96;100.00;97049.78;5069566;28;20234;-75
2023/03/26 07:49:05;;;;;;;3.83;1.80;;;;;;;7.88;100.00;97040.81;5071982;28;20217;-76
2023/03/26 07:51:32;;;;;;;3.10;1.30;;;;;;;7.75;100.00;97030.38;5071364;28;20206;-76
2023/03/26 07:53:59;;;;;;;5.47;1.83;;;;;;;7.70;100.00;97031.66;5069100;28;20218;-76
2023/03/26 07:56:31;;;;;;;3.53;1.60;;;;;;;7.62;100.00;97026.16;5071336;28;20227;-76
2023/03/26 07:59:10;;;;;;;4.67;1.70;;;;;;;7.55;100.00;97031.06;5071596;28;20206;-76
2023/03/26 08:01:47;;;;;;;5.03;1.60;;;;;;;7.50;100.00;97024.44;5069021;28;20232;-76
2023/03/26 08:04:39;;;;;;;5.87;1.57;;;;;;;7.44;100.00;97014.38;5071045;28;20214;-76
2023/03/26 08:07:13;;;;;;;4.33;1.60;;;;;;;7.38;100.00;97025.34;5071563;28;20221;-75
2023/03/26 08:09:51;;;;;;;4.17;1.67;;;;;;;7.39;100.00;97016.50;5071437;28;20215;-76
2023/03/26 08:12:24;;;;;;;3.23;1.30;;;;;;;7.42;100.00;97021.56;5071533;28;20210;-75
2023/03/26 08:14:59;;;;;;;4.93;1.50;;;;;;;7.48;100.00;97018.47;5071275;28;20276;-74
2023/03/26 08:17:31;;;;;;;4.50;1.83;;;;;;;7.48;100.00;97021.91;5071292;28;20210;-74
2023/03/26 08:20:10;;;;;;;4.13;1.73;;;;;;;7.49;100.00;97007.00;5070910;28;20214;-74
2023/03/26 08:22:41;;;;;;;4.80;1.90;;;;;;;7.47;100.00;97004.47;5071356;28;20227;-74
2023/03/26 08:25:20;;;;;;;4.30;1.80;;;;;;;7.40;100.00;96997.16;5071237;28;20263;-74
2023/03/26 08:28:03;;;;;;;3.67;1.77;;;;;;;7.38;100.00;96996.44;5070999;28;20220;-74
2023/03/26 08:30:31;;;;;;;9.10;2.40;;;;;;;7.49;100.00;96985.97;5071086;28;20208;-75
2023/03/26 08:33:05;;;;;;;5.33;2.30;;;;;;;7.56;100.00;96987.19;5071285;28;20214;-74
2023/03/26 08:35:33;;;;;;;5.50;2.07;;;;;;;7.48;100.00;96979.84;5071053;28;20286;-74
2023/03/26 08:38:00;;;;;;;8.00;2.10;;;;;;;7.52;100.00;96977.84;5071086;28;20217;-76
2023/03/26 08:40:48;;;;;;;8.27;2.27;;;;;;;7.47;100.00;96982.63;5070878;28;20223;-76
2023/03/26 08:43:42;;;;;;;4.30;2.00;;;;;;;7.38;100.00;96970.16;5071008;28;20242;-76
2023/03/26 08:46:47;;;;;;;5.43;2.10;;;;;;;7.41;100.00;96972.56;5070994;28;20421;-74
2023/03/26 08:49:49;;;;;;;6.87;2.60;;;;;;;7.50;100.00;96966.59;5071003;28;20211;-75
2023/03/26 08:52:36;;;;;;;3.67;2.10;;;;;;;7.46;100.00;96966.00;5070991;28;20209;-75
2023/03/26 08:55:31;;;;;;;9.27;2.50;;;;;;;7.46;100.00;96962.53;5071114;28;20246;-75
2023/03/26 08:58:22;;;;;;;5.77;2.37;;;;;;;7.51;100.00;96957.75;5071046;28;20209;-76
2023/03/26 09:01:10;;;;;;;3.97;2.00;;;;;;;7.67;100.00;96963.56;5069076;28;20206;-75
2023/03/26 09:04:10;;;;;;;7.87;2.60;;;;;;;7.70;100.00;96963.31;5068691;28;20204;-77
2023/03/26 09:07:05;;;;;;;7.80;2.20;;;;;;;7.81;100.00;96961.53;5067748;28;20235;-75
2023/03/26 09:10:02;;;;;;;9.10;2.60;;;;;;;7.84;100.00;96973.63;5069732;28;20285;-76
2023/03/26 09:13:13;;;;;;;4.63;2.10;;;;;;;7.89;100.00;96974.13;5068204;28;20209;-76
2023/03/26 09:16:09;;;;;;;5.37;2.47;;;;;;;8.00;100.00;96968.84;5069596;28;20227;-75
2023/03/26 09:19:02;;;;;;;6.70;2.20;;;;;;;8.04;100.00;96968.50;5069782;28;20218;-76
2023/03/26 09:22:13;;;;;;;6.87;2.37;;;;;;;8.00;100.00;96982.00;5069538;28;20331;-75
2023/03/26 09:25:12;;;;;;;7.73;2.80;;;;;;;8.21;100.00;96964.59;5070300;28;20207;-76
2023/03/26 09:27:47;;;;;;;5.70;2.57;;;;;;;8.37;100.00;96957.16;5070014;28;20213;-76
2023/03/26 09:30:44;;;;;;;4.83;2.40;;;;;;;8.64;100.00;96947.06;5069807;28;20696;-75
2023/03/26 09:33:36;;;;;;;6.17;2.07;;;;;;;8.70;100.00;96951.84;5069812;28;20703;-76
2023/03/26 09:36:32;;;;;;;5.03;2.07;;;;;;;8.68;100.00;96949.34;5069420;28;20233;-75
2023/03/26 09:39:07;;;;;;;5.40;2.30;;;;;;;8.80;100.00;96937.81;5040850;28;20209;-74
2023/03/26 09:41:43;;;;;;;5.50;2.03;;;;;;;9.08;100.00;96941.66;5069937;28;20241;-74
2023/03/26 09:44:29;;;;;;;4.83;2.17;;;;;;;9.43;100.00;96940.41;5072869;28;20213;-74
2023/03/26 09:47:21;;;;;;;7.43;2.53;;;;;;;9.66;100.00;96943.78;5074502;28;20230;-75
2023/03/26 09:49:55;;;;;;;3.10;1.73;;;;;;;9.94;100.00;96941.31;5074775;28;20211;-75
2023/03/26 09:52:45;;;;;;;3.80;1.70;;;;;;;10.14;100.00;96939.63;5073929;28;20516;-76
2023/03/26 09:55:45;;;;;;;4.77;1.83;;;;;;;10.27;100.00;96941.06;5073948;28;20231;-75
2023/03/26 09:58:33;;;;;;;2.70;1.43;;;;;;;10.28;100.00;96931.38;5074404;28;20226;-74
2023/03/26 10:01:09;;;;;;;3.50;1.57;;;;;;;10.19;100.00;96930.34;5073840;28;20265;-74
2023/03/26 10:03:45;;;;;;;5.07;2.00;;;;;;;10.24;100.00;96930.78;5074410;28;20227;-75
2023/03/26 10:06:26;;;;;;;3.17;1.53;;;;;;;10.42;100.00;96925.72;5074161;28;20227;-74
2023/03/26 10:09:13;;;;;;;3.40;1.90;;;;;;;10.52;100.00;96923.94;5074129;28;20308;-75
2023/03/26 10:12:06;;;;;;;3.17;1.30;;;;;;;10.67;100.00;96925.22;5073755;28;20292;-74
2023/03/26 10:14:41;;;;;;;3.17;1.60;;;;;;;10.65;100.00;96924.53;5073949;28;20213;-74
2023/03/26 10:17:25;;;;;;;1.90;1.17;;;;;;;10.75;100.00;96912.16;5073865;28;20234;-74
2023/03/26 10:20:08;;;;;;;3.30;1.13;;;;;;;10.97;100.00;96914.56;5073848;28;20272;-75
2023/03/26 10:22:47;;;;;;;2.47;1.10;;;;;;;11.16;100.00;96917.22;5073715;28;20810;-75
2023/03/26 10:25:43;;;;;;;1.50;1.03;;;;;;;11.18;100.00;96904.72;5073628;28;20247;-75
2023/03/26 10:28:25;;;;;;;2.97;1.23;;;;;;;11.28;100.00;96902.88;5073800;28;20218;-74
2023/03/26 10:31:30;;;;;;;2.63;1.20;;;;;;;11.40;100.00;96907.03;5073343;28;20212;-74
2023/03/26 10:34:09;;;;;;;2.23;1.43;;;;;;;11.47;100.00;96905.50;5046666;28;20221;-75
2023/03/26 10:36:38;;;;;;;4.83;1.13;;;;;;;11.56;100.00;96886.16;5073546;28;20239;-75
2023/03/26 10:39:24;;;;;;;1.53;0.93;;;;;;;11.57;97.37;96878.03;5073306;28;20211;-75
2023/03/26 10:41:58;;;;;;;1.40;1.00;;;;;;;11.68;100.00;96890.34;5073623;28;20226;-75
2023/03/26 10:44:44;;;;;;;1.47;1.37;;;;;;;11.70;96.61;96883.91;5073623;28;20207;-75
2023/03/26 10:47:29;;;;;;;2.47;0.90;;;;;;;11.66;90.69;96871.09;5073453;28;20239;-76
2023/03/26 10:50:15;;;;;;;2.13;1.00;;;;;;;11.73;86.95;96867.75;5073292;28;20589;-75
2023/03/26 10:52:46;;;;;;;1.40;0.80;;;;;;;12.09;89.23;96879.31;5073500;28;20263;-75
2023/03/26 10:55:18;;;;;;;1.50;0.73;;;;;;;12.21;81.77;96862.25;5072058;28;20232;-76
2023/03/26 10:57:50;;;;;;;1.13;0.80;;;;;;;12.40;77.77;96852.41;5073274;28;20313;-75
2023/03/26 11:00:23;;;;;;;1.43;0.80;;;;;;;12.29;75.08;96859.72;5073087;28;20253;-76
2023/03/26 11:03:09;;;;;;;2.53;0.93;;;;;;;12.07;72.04;96838.91;5073131;28;20227;-76
2023/03/26 11:05:51;;;;;;;1.13;0.67;;;;;;;12.02;69.35;96831.41;5072850;28;20235;-76
2023/03/26 11:08:24;;;;;;;0.80;0.63;;;;;;;12.07;70.11;96828.31;5073137;28;20207;-76
2023/03/26 11:10:56;;;;;;;1.17;0.80;;;;;;;12.26;70.42;96831.72;5072858;28;20565;-76
2023/03/26 11:13:29;;;;;;;1.73;0.70;;;;;;;12.46;71.50;96840.41;5073115;28;20210;-77
2023/03/26 11:16:01;;;;;;;1.07;0.70;;;;;;;12.69;68.41;96818.59;5072856;28;20231;-75
2023/03/26 11:18:39;;;;;;;1.20;0.80;;;;;;;12.75;68.53;96822.47;5072982;28;20597;-76
2023/03/26 11:21:13;;;;;;;1.57;0.70;;;;;;;12.69;66.75;96805.34;5072584;28;20215;-76
2023/03/26 11:23:49;;;;;;;1.60;0.80;;;;;;;12.76;65.77;96808.22;5072632;28;20233;-76
2023/03/26 11:26:18;;;;;;;1.80;0.80;;;;;;;12.70;64.82;96800.88;5072380;28;20256;-76
2023/03/26 11:29:14;;;;;;;1.30;1.10;;;;;;;12.74;65.11;96803.09;5072539;28;20203;-75
2023/03/26 11:31:52;;;;;;;1.07;0.63;;;;;;;12.96;65.26;96794.69;5059440;28;20203;-75
2023/03/26 11:34:23;;;;;;;1.33;0.80;;;;;;;13.09;62.74;96796.97;5072740;28;20229;-76
2023/03/26 11:36:54;;;;;;;0.80;0.60;;;;;;;13.28;62.07;96783.50;5072523;22;20251;-76
2023/03/26 11:39:25;;;;;;;1.63;0.80;;;;;;;13.30;62.00;96789.47;5051082;28;20270;-76
2023/03/26 11:42:00;;;;;;;0.97;0.70;;;;;;;13.23;60.58;96778.69;5051703;28;20203;-75
2023/03/26 11:44:33;;;;;;;2.03;1.10;;;;;;;13.18;60.46;96774.81;5051690;28;20661;-74
2023/03/26 11:47:07;;;;;;;2.20;0.70;;;;;;;13.07;58.71;96767.13;5051625;28;20262;-76
2023/03/26 11:49:34;;;;;;;1.63;0.90;;;;;;;12.83;60.88;96786.25;5051419;28;20281;-74
2023/03/26 11:52:02;;;;;;;1.00;0.70;;;;;;;12.69;61.78;96800.06;5051451;28;20226;-75
2023/03/26 11:54:29;;;;;;;1.77;0.60;;;;;;;12.66;62.95;96810.13;5051726;28;20269;-75
2023/03/26 11:57:00;;;;;;;1.70;0.80;;;;;;;12.53;64.86;96820.25;5051599;28;20224;-75
2023/03/26 11:59:29;;;;;;;0.97;0.57;;;;;;;12.21;69.98;96851.66;5051387;28;20299;-76